sensor_id;sensor_type;location;lat;lon;timestamp;P1;durP1;ratioP1;P2;durP2;ratioP2
18443;SDS011;9350;53.176;8.194;2023-08-24T00:01:19;4.18;;;2.10;;
18443;SDS011;9350;53.176;8.194;2023-08-24T00:03:46;4.53;;;2.13;;
18443;SDS011;9350;53.176;8.194;2023-08-24T00:06:13;3.47;;;1.85;;
18443;SDS011;9350;53.176;8.194;2023-08-24T00:08:40;4.32;;;2.13;;
18443;SDS011;9350;53.176;8.194;2023-08-24T00:11:07;2.53;;;1.85;;
18443;SDS011;9350;53.176;8.194;2023-08-24T00:13:35;6.72;;;2.20;;
18443;SDS011;9350;53.176;8.194;2023-08-24T00:16:01;5.43;;;2.20;;
18443;SDS011;9350;53.176;8.194;2023-08-24T00:18:29;4.30;;;2.00;;
18443;SDS011;9350;53.176;8.194;2023-08-24T00:20:55;3.05;;;2.38;;
18443;SDS011;9350;53.176;8.194;2023-08-24T00:23:22;4.65;;;2.28;;
18443;SDS011;9350;53.176;8.194;2023-08-24T00:25:49;3.08;;;2.08;;
18443;SDS011;9350;53.176;8.194;2023-08-24T00:28:15;6.43;;;2.10;;
18443;SDS011;9350;53.176;8.194;2023-08-24T00:30:43;4.50;;;1.90;;
18443;SDS011;9350;53.176;8.194;2023-08-24T00:33:10;2.60;;;2.28;;
18443;SDS011;9350;53.176;8.194;2023-08-24T00:35:37;2.47;;;2.20;;
18443;SDS011;9350;53.176;8.194;2023-08-24T00:38:04;4.75;;;2.00;;
18443;SDS011;9350;53.176;8.194;2023-08-24T00:40:30;2.10;;;2.00;;
18443;SDS011;9350;53.176;8.194;2023-08-24T00:42:57;4.28;;;2.03;;
18443;SDS011;9350;53.176;8.194;2023-08-24T00:45:24;4.93;;;2.20;;
18443;SDS011;9350;53.176;8.194;2023-08-24T00:47:52;4.25;;;2.22;;
18443;SDS011;9350;53.176;8.194;2023-08-24T00:50:19;4.13;;;2.15;;
18443;SDS011;9350;53.176;8.194;2023-08-24T00:52:46;2.38;;;2.17;;
18443;SDS011;9350;53.176;8.194;2023-08-24T00:55:13;2.15;;;2.03;;
18443;SDS011;9350;53.176;8.194;2023-08-24T00:57:40;3.05;;;2.03;;
18443;SDS011;9350;53.176;8.194;2023-08-24T01:00:07;2.42;;;2.30;;
18443;SDS011;9350;53.176;8.194;2023-08-24T01:02:36;2.30;;;2.13;;
18443;SDS011;9350;53.176;8.194;2023-08-24T01:05:04;3.75;;;2.30;;
18443;SDS011;9350;53.176;8.194;2023-08-24T01:07:31;2.60;;;2.25;;
18443;SDS011;9350;53.176;8.194;2023-08-24T01:09:59;3.03;;;2.40;;
18443;SDS011;9350;53.176;8.194;2023-08-24T01:12:28;3.42;;;2.05;;
18443;SDS011;9350;53.176;8.194;2023-08-24T01:15:04;3.30;;;1.92;;
18443;SDS011;9350;53.176;8.194;2023-08-24T01:17:35;3.47;;;2.00;;
18443;SDS011;9350;53.176;8.194;2023-08-24T01:20:07;3.28;;;2.10;;
18443;SDS011;9350;53.176;8.194;2023-08-24T01:22:37;4.05;;;2.40;;
18443;SDS011;9350;53.176;8.194;2023-08-24T01:25:11;3.75;;;2.30;;
18443;SDS011;9350;53.176;8.194;2023-08-24T01:27:42;4.00;;;2.58;;
18443;SDS011;9350;53.176;8.194;2023-08-24T01:30:10;3.22;;;2.50;;
18443;SDS011;9350;53.176;8.194;2023-08-24T01:32:37;2.78;;;2.20;;
18443;SDS011;9350;53.176;8.194;2023-08-24T01:35:05;2.72;;;2.40;;
18443;SDS011;9350;53.176;8.194;2023-08-24T01:37:34;3.17;;;2.28;;
18443;SDS011;9350;53.176;8.194;2023-08-24T01:40:04;2.85;;;2.20;;
18443;SDS011;9350;53.176;8.194;2023-08-24T01:42:37;3.00;;;2.30;;
18443;SDS011;9350;53.176;8.194;2023-08-24T01:45:14;2.45;;;2.22;;
18443;SDS011;9350;53.176;8.194;2023-08-24T01:47:43;2.50;;;2.30;;
18443;SDS011;9350;53.176;8.194;2023-08-24T01:50:13;2.80;;;2.10;;
18443;SDS011;9350;53.176;8.194;2023-08-24T01:52:40;2.05;;;1.95;;
18443;SDS011;9350;53.176;8.194;2023-08-24T01:55:08;2.88;;;2.10;;
18443;SDS011;9350;53.176;8.194;2023-08-24T01:57:35;3.50;;;2.40;;
18443;SDS011;9350;53.176;8.194;2023-08-24T02:00:04;2.63;;;2.30;;
18443;SDS011;9350;53.176;8.194;2023-08-24T02:02:34;4.90;;;2.58;;
18443;SDS011;9350;53.176;8.194;2023-08-24T02:05:01;3.17;;;2.60;;
18443;SDS011;9350;53.176;8.194;2023-08-24T02:07:28;2.83;;;2.35;;
18443;SDS011;9350;53.176;8.194;2023-08-24T02:09:55;2.53;;;2.33;;
18443;SDS011;9350;53.176;8.194;2023-08-24T02:12:22;2.40;;;2.20;;
18443;SDS011;9350;53.176;8.194;2023-08-24T02:14:48;4.15;;;2.47;;
18443;SDS011;9350;53.176;8.194;2023-08-24T02:17:16;2.90;;;2.55;;
18443;SDS011;9350;53.176;8.194;2023-08-24T02:19:43;5.15;;;2.40;;
18443;SDS011;9350;53.176;8.194;2023-08-24T02:22:10;3.20;;;2.38;;
18443;SDS011;9350;53.176;8.194;2023-08-24T02:24:36;6.70;;;2.50;;
18443;SDS011;9350;53.176;8.194;2023-08-24T02:27:04;5.25;;;3.00;;
18443;SDS011;9350;53.176;8.194;2023-08-24T02:29:31;6.45;;;3.30;;
18443;SDS011;9350;53.176;8.194;2023-08-24T02:31:57;2.58;;;2.33;;
18443;SDS011;9350;53.176;8.194;2023-08-24T02:34:25;2.83;;;2.35;;
18443;SDS011;9350;53.176;8.194;2023-08-24T02:36:52;2.38;;;2.20;;
18443;SDS011;9350;53.176;8.194;2023-08-24T02:39:19;3.83;;;2.38;;
18443;SDS011;9350;53.176;8.194;2023-08-24T02:41:45;4.70;;;2.47;;
18443;SDS011;9350;53.176;8.194;2023-08-24T02:44:12;3.17;;;2.60;;
18443;SDS011;9350;53.176;8.194;2023-08-24T02:46:39;2.50;;;2.40;;
18443;SDS011;9350;53.176;8.194;2023-08-24T02:49:07;2.60;;;2.33;;
18443;SDS011;9350;53.176;8.194;2023-08-24T02:51:35;3.58;;;2.13;;
18443;SDS011;9350;53.176;8.194;2023-08-24T02:54:03;2.70;;;2.50;;
18443;SDS011;9350;53.176;8.194;2023-08-24T02:56:30;2.45;;;2.25;;
18443;SDS011;9350;53.176;8.194;2023-08-24T02:58:56;2.40;;;2.20;;
18443;SDS011;9350;53.176;8.194;2023-08-24T03:01:23;2.30;;;2.10;;
18443;SDS011;9350;53.176;8.194;2023-08-24T03:03:51;2.80;;;2.50;;
18443;SDS011;9350;53.176;8.194;2023-08-24T03:06:18;2.28;;;2.08;;
18443;SDS011;9350;53.176;8.194;2023-08-24T03:08:46;2.83;;;2.50;;
18443;SDS011;9350;53.176;8.194;2023-08-24T03:11:12;2.63;;;2.53;;
18443;SDS011;9350;53.176;8.194;2023-08-24T03:13:39;3.33;;;2.90;;
18443;SDS011;9350;53.176;8.194;2023-08-24T03:16:06;2.80;;;2.60;;
18443;SDS011;9350;53.176;8.194;2023-08-24T03:18:34;3.47;;;3.15;;
18443;SDS011;9350;53.176;8.194;2023-08-24T03:21:01;4.53;;;3.03;;
18443;SDS011;9350;53.176;8.194;2023-08-24T03:23:27;4.15;;;3.00;;
18443;SDS011;9350;53.176;8.194;2023-08-24T03:25:56;3.58;;;2.72;;
18443;SDS011;9350;53.176;8.194;2023-08-24T03:28:23;3.33;;;3.05;;
18443;SDS011;9350;53.176;8.194;2023-08-24T03:30:51;6.57;;;3.20;;
18443;SDS011;9350;53.176;8.194;2023-08-24T03:33:20;4.68;;;3.75;;
18443;SDS011;9350;53.176;8.194;2023-08-24T03:35:47;5.63;;;3.85;;
18443;SDS011;9350;53.176;8.194;2023-08-24T03:38:14;6.55;;;3.67;;
18443;SDS011;9350;53.176;8.194;2023-08-24T03:40:41;5.00;;;3.88;;
18443;SDS011;9350;53.176;8.194;2023-08-24T03:43:09;4.28;;;3.42;;
18443;SDS011;9350;53.176;8.194;2023-08-24T03:45:36;6.10;;;3.70;;
18443;SDS011;9350;53.176;8.194;2023-08-24T03:48:03;3.97;;;3.58;;
18443;SDS011;9350;53.176;8.194;2023-08-24T03:50:30;4.35;;;3.90;;
18443;SDS011;9350;53.176;8.194;2023-08-24T03:52:57;11.05;;;4.50;;
18443;SDS011;9350;53.176;8.194;2023-08-24T03:55:23;4.63;;;4.15;;
18443;SDS011;9350;53.176;8.194;2023-08-24T03:57:50;6.32;;;4.30;;
18443;SDS011;9350;53.176;8.194;2023-08-24T04:00:20;4.20;;;3.83;;
18443;SDS011;9350;53.176;8.194;2023-08-24T04:02:47;5.95;;;4.13;;
18443;SDS011;9350;53.176;8.194;2023-08-24T04:05:14;4.75;;;4.10;;
18443;SDS011;9350;53.176;8.194;2023-08-24T04:07:40;7.97;;;4.88;;
18443;SDS011;9350;53.176;8.194;2023-08-24T04:10:07;6.38;;;4.90;;
18443;SDS011;9350;53.176;8.194;2023-08-24T04:12:34;5.20;;;4.40;;
18443;SDS011;9350;53.176;8.194;2023-08-24T04:15:02;6.40;;;4.47;;
18443;SDS011;9350;53.176;8.194;2023-08-24T04:17:30;4.97;;;4.25;;
18443;SDS011;9350;53.176;8.194;2023-08-24T04:19:57;5.38;;;4.47;;
18443;SDS011;9350;53.176;8.194;2023-08-24T04:22:24;8.25;;;4.47;;
18443;SDS011;9350;53.176;8.194;2023-08-24T04:24:50;5.78;;;4.68;;
18443;SDS011;9350;53.176;8.194;2023-08-24T04:27:17;5.90;;;4.63;;
18443;SDS011;9350;53.176;8.194;2023-08-24T04:29:45;5.22;;;4.78;;
18443;SDS011;9350;53.176;8.194;2023-08-24T04:32:11;8.40;;;5.55;;
18443;SDS011;9350;53.176;8.194;2023-08-24T04:34:39;7.82;;;5.50;;
18443;SDS011;9350;53.176;8.194;2023-08-24T04:37:06;9.55;;;5.28;;
18443;SDS011;9350;53.176;8.194;2023-08-24T04:39:33;5.82;;;5.15;;
18443;SDS011;9350;53.176;8.194;2023-08-24T04:42:00;5.75;;;5.15;;
18443;SDS011;9350;53.176;8.194;2023-08-24T04:44:27;8.68;;;5.93;;
18443;SDS011;9350;53.176;8.194;2023-08-24T04:46:54;9.45;;;5.95;;
18443;SDS011;9350;53.176;8.194;2023-08-24T04:49:20;7.57;;;5.63;;
18443;SDS011;9350;53.176;8.194;2023-08-24T04:51:48;8.13;;;5.65;;
18443;SDS011;9350;53.176;8.194;2023-08-24T04:54:15;11.48;;;6.47;;
18443;SDS011;9350;53.176;8.194;2023-08-24T04:56:42;9.73;;;5.97;;
18443;SDS011;9350;53.176;8.194;2023-08-24T04:59:08;7.65;;;5.72;;
18443;SDS011;9350;53.176;8.194;2023-08-24T05:01:35;7.88;;;5.60;;
18443;SDS011;9350;53.176;8.194;2023-08-24T05:04:02;9.23;;;6.18;;
18443;SDS011;9350;53.176;8.194;2023-08-24T05:06:29;7.88;;;5.78;;
18443;SDS011;9350;53.176;8.194;2023-08-24T05:08:57;8.25;;;5.53;;
18443;SDS011;9350;53.176;8.194;2023-08-24T05:11:26;6.70;;;5.85;;
18443;SDS011;9350;53.176;8.194;2023-08-24T05:13:54;9.85;;;5.85;;
18443;SDS011;9350;53.176;8.194;2023-08-24T05:16:21;12.07;;;6.57;;
18443;SDS011;9350;53.176;8.194;2023-08-24T05:18:47;10.73;;;6.82;;
18443;SDS011;9350;53.176;8.194;2023-08-24T05:21:14;9.40;;;7.35;;
18443;SDS011;9350;53.176;8.194;2023-08-24T05:23:41;11.60;;;7.18;;
18443;SDS011;9350;53.176;8.194;2023-08-24T05:26:09;11.80;;;7.43;;
18443;SDS011;9350;53.176;8.194;2023-08-24T05:28:36;11.65;;;7.50;;
18443;SDS011;9350;53.176;8.194;2023-08-24T05:31:02;15.02;;;8.60;;
18443;SDS011;9350;53.176;8.194;2023-08-24T05:33:29;21.15;;;8.55;;
18443;SDS011;9350;53.176;8.194;2023-08-24T05:35:58;18.10;;;9.13;;
18443;SDS011;9350;53.176;8.194;2023-08-24T05:38:24;15.10;;;9.68;;
18443;SDS011;9350;53.176;8.194;2023-08-24T05:40:51;18.45;;;9.18;;
18443;SDS011;9350;53.176;8.194;2023-08-24T05:43:19;13.50;;;9.35;;
18443;SDS011;9350;53.176;8.194;2023-08-24T05:45:46;17.80;;;9.27;;
18443;SDS011;9350;53.176;8.194;2023-08-24T05:48:14;17.25;;;9.45;;
18443;SDS011;9350;53.176;8.194;2023-08-24T05:50:42;15.85;;;9.85;;
18443;SDS011;9350;53.176;8.194;2023-08-24T05:53:09;15.98;;;8.55;;
18443;SDS011;9350;53.176;8.194;2023-08-24T05:55:36;18.27;;;10.13;;
18443;SDS011;9350;53.176;8.194;2023-08-24T05:58:03;15.10;;;9.75;;
18443;SDS011;9350;53.176;8.194;2023-08-24T06:00:31;16.65;;;10.50;;
18443;SDS011;9350;53.176;8.194;2023-08-24T06:02:58;14.27;;;9.10;;
18443;SDS011;9350;53.176;8.194;2023-08-24T06:05:24;16.45;;;9.07;;
18443;SDS011;9350;53.176;8.194;2023-08-24T06:07:51;12.57;;;8.15;;
18443;SDS011;9350;53.176;8.194;2023-08-24T06:10:18;13.45;;;7.72;;
18443;SDS011;9350;53.176;8.194;2023-08-24T06:12:45;12.10;;;6.97;;
18443;SDS011;9350;53.176;8.194;2023-08-24T06:15:11;11.52;;;6.47;;
18443;SDS011;9350;53.176;8.194;2023-08-24T06:17:40;10.88;;;6.80;;
18443;SDS011;9350;53.176;8.194;2023-08-24T06:20:08;10.90;;;6.80;;
18443;SDS011;9350;53.176;8.194;2023-08-24T06:22:36;15.57;;;6.10;;
18443;SDS011;9350;53.176;8.194;2023-08-24T06:25:03;8.68;;;5.30;;
18443;SDS011;9350;53.176;8.194;2023-08-24T06:27:30;12.32;;;5.20;;
18443;SDS011;9350;53.176;8.194;2023-08-24T06:29:57;10.85;;;5.40;;
18443;SDS011;9350;53.176;8.194;2023-08-24T06:32:24;8.77;;;5.00;;
18443;SDS011;9350;53.176;8.194;2023-08-24T06:34:52;17.67;;;6.35;;
18443;SDS011;9350;53.176;8.194;2023-08-24T06:37:19;9.65;;;5.55;;
18443;SDS011;9350;53.176;8.194;2023-08-24T06:39:46;6.80;;;4.38;;
18443;SDS011;9350;53.176;8.194;2023-08-24T06:42:12;6.47;;;4.00;;
18443;SDS011;9350;53.176;8.194;2023-08-24T06:44:39;7.38;;;3.92;;
18443;SDS011;9350;53.176;8.194;2023-08-24T06:47:05;6.28;;;4.10;;
18443;SDS011;9350;53.176;8.194;2023-08-24T06:49:32;7.93;;;3.58;;
18443;SDS011;9350;53.176;8.194;2023-08-24T06:52:01;8.68;;;3.42;;
18443;SDS011;9350;53.176;8.194;2023-08-24T06:54:28;8.25;;;4.07;;
18443;SDS011;9350;53.176;8.194;2023-08-24T06:56:55;9.60;;;4.70;;
18443;SDS011;9350;53.176;8.194;2023-08-24T06:59:21;11.57;;;3.90;;
18443;SDS011;9350;53.176;8.194;2023-08-24T07:01:48;9.15;;;4.22;;
18443;SDS011;9350;53.176;8.194;2023-08-24T07:04:15;10.05;;;3.80;;
18443;SDS011;9350;53.176;8.194;2023-08-24T07:06:42;8.63;;;3.20;;
18443;SDS011;9350;53.176;8.194;2023-08-24T07:09:11;9.23;;;3.50;;
18443;SDS011;9350;53.176;8.194;2023-08-24T07:11:37;8.38;;;3.35;;
18443;SDS011;9350;53.176;8.194;2023-08-24T07:14:04;8.95;;;3.60;;
18443;SDS011;9350;53.176;8.194;2023-08-24T07:16:31;4.40;;;2.97;;
18443;SDS011;9350;53.176;8.194;2023-08-24T07:18:58;10.40;;;3.03;;
18443;SDS011;9350;53.176;8.194;2023-08-24T07:21:24;9.90;;;3.88;;
18443;SDS011;9350;53.176;8.194;2023-08-24T07:23:51;7.20;;;3.03;;
18443;SDS011;9350;53.176;8.194;2023-08-24T07:26:20;6.40;;;3.60;;
18443;SDS011;9350;53.176;8.194;2023-08-24T07:28:47;9.98;;;3.63;;
18443;SDS011;9350;53.176;8.194;2023-08-24T07:31:13;8.25;;;3.35;;
18443;SDS011;9350;53.176;8.194;2023-08-24T07:33:40;8.93;;;3.50;;
18443;SDS011;9350;53.176;8.194;2023-08-24T07:36:08;6.10;;;2.90;;
18443;SDS011;9350;53.176;8.194;2023-08-24T07:38:35;7.45;;;3.10;;
18443;SDS011;9350;53.176;8.194;2023-08-24T07:41:02;10.82;;;3.45;;
18443;SDS011;9350;53.176;8.194;2023-08-24T07:43:30;5.38;;;3.10;;
18443;SDS011;9350;53.176;8.194;2023-08-24T07:45:57;9.80;;;3.70;;
18443;SDS011;9350;53.176;8.194;2023-08-24T07:48:24;8.73;;;3.35;;
18443;SDS011;9350;53.176;8.194;2023-08-24T07:50:51;8.13;;;3.20;;
18443;SDS011;9350;53.176;8.194;2023-08-24T07:53:17;6.57;;;3.47;;
18443;SDS011;9350;53.176;8.194;2023-08-24T07:55:44;7.72;;;3.00;;
18443;SDS011;9350;53.176;8.194;2023-08-24T07:58:12;8.45;;;2.70;;
18443;SDS011;9350;53.176;8.194;2023-08-24T08:00:40;13.77;;;3.75;;
18443;SDS011;9350;53.176;8.194;2023-08-24T08:03:06;20.15;;;3.10;;
18443;SDS011;9350;53.176;8.194;2023-08-24T08:05:33;5.88;;;3.58;;
18443;SDS011;9350;53.176;8.194;2023-08-24T08:08:00;6.03;;;3.17;;
18443;SDS011;9350;53.176;8.194;2023-08-24T08:10:27;10.50;;;3.60;;
18443;SDS011;9350;53.176;8.194;2023-08-24T08:12:53;5.38;;;2.60;;
18443;SDS011;9350;53.176;8.194;2023-08-24T08:15:20;5.22;;;2.65;;
18443;SDS011;9350;53.176;8.194;2023-08-24T08:17:48;7.85;;;2.28;;
18443;SDS011;9350;53.176;8.194;2023-08-24T08:20:15;4.75;;;2.17;;
18443;SDS011;9350;53.176;8.194;2023-08-24T08:22:42;5.10;;;2.22;;
18443;SDS011;9350;53.176;8.194;2023-08-24T08:25:08;5.88;;;2.50;;
18443;SDS011;9350;53.176;8.194;2023-08-24T08:27:37;4.47;;;2.40;;
18443;SDS011;9350;53.176;8.194;2023-08-24T08:30:04;8.07;;;2.67;;
18443;SDS011;9350;53.176;8.194;2023-08-24T08:32:32;6.75;;;2.72;;
18443;SDS011;9350;53.176;8.194;2023-08-24T08:35:00;3.85;;;2.40;;
18443;SDS011;9350;53.176;8.194;2023-08-24T08:37:30;3.92;;;2.03;;
18443;SDS011;9350;53.176;8.194;2023-08-24T08:39:56;2.55;;;1.80;;
18443;SDS011;9350;53.176;8.194;2023-08-24T08:42:23;8.43;;;2.17;;
18443;SDS011;9350;53.176;8.194;2023-08-24T08:44:50;3.92;;;2.03;;
18443;SDS011;9350;53.176;8.194;2023-08-24T08:47:20;6.32;;;2.35;;
18443;SDS011;9350;53.176;8.194;2023-08-24T08:49:47;3.85;;;2.38;;
18443;SDS011;9350;53.176;8.194;2023-08-24T08:52:16;3.80;;;2.20;;
18443;SDS011;9350;53.176;8.194;2023-08-24T08:54:42;3.10;;;2.00;;
18443;SDS011;9350;53.176;8.194;2023-08-24T08:57:09;4.65;;;2.20;;
18443;SDS011;9350;53.176;8.194;2023-08-24T08:59:36;4.90;;;2.13;;
18443;SDS011;9350;53.176;8.194;2023-08-24T09:02:04;5.10;;;2.13;;
18443;SDS011;9350;53.176;8.194;2023-08-24T09:04:35;5.88;;;2.13;;
18443;SDS011;9350;53.176;8.194;2023-08-24T09:07:03;7.55;;;2.40;;
18443;SDS011;9350;53.176;8.194;2023-08-24T09:09:37;2.65;;;2.00;;
18443;SDS011;9350;53.176;8.194;2023-08-24T09:12:05;3.83;;;2.22;;
18443;SDS011;9350;53.176;8.194;2023-08-24T09:14:32;5.35;;;2.25;;
18443;SDS011;9350;53.176;8.194;2023-08-24T09:16:59;6.57;;;2.65;;
18443;SDS011;9350;53.176;8.194;2023-08-24T09:19:27;4.65;;;2.03;;
18443;SDS011;9350;53.176;8.194;2023-08-24T09:21:56;4.63;;;2.03;;
18443;SDS011;9350;53.176;8.194;2023-08-24T09:24:28;4.45;;;2.00;;
18443;SDS011;9350;53.176;8.194;2023-08-24T09:26:57;6.05;;;2.97;;
18443;SDS011;9350;53.176;8.194;2023-08-24T09:29:24;2.85;;;2.15;;
18443;SDS011;9350;53.176;8.194;2023-08-24T09:31:51;6.07;;;2.50;;
18443;SDS011;9350;53.176;8.194;2023-08-24T09:34:19;3.00;;;2.17;;
18443;SDS011;9350;53.176;8.194;2023-08-24T09:36:46;4.38;;;2.40;;
18443;SDS011;9350;53.176;8.194;2023-08-24T09:39:12;6.20;;;3.05;;
18443;SDS011;9350;53.176;8.194;2023-08-24T09:41:45;8.85;;;3.00;;
18443;SDS011;9350;53.176;8.194;2023-08-24T09:44:14;8.82;;;2.92;;
18443;SDS011;9350;53.176;8.194;2023-08-24T09:46:42;6.05;;;2.47;;
18443;SDS011;9350;53.176;8.194;2023-08-24T09:49:10;6.50;;;2.55;;
18443;SDS011;9350;53.176;8.194;2023-08-24T09:51:38;5.43;;;2.65;;
18443;SDS011;9350;53.176;8.194;2023-08-24T09:54:06;4.30;;;2.20;;
18443;SDS011;9350;53.176;8.194;2023-08-24T09:56:34;5.13;;;3.03;;
18443;SDS011;9350;53.176;8.194;2023-08-24T09:59:05;6.10;;;3.00;;
18443;SDS011;9350;53.176;8.194;2023-08-24T10:01:38;6.35;;;3.10;;
18443;SDS011;9350;53.176;8.194;2023-08-24T10:04:07;4.45;;;2.75;;
18443;SDS011;9350;53.176;8.194;2023-08-24T10:06:36;7.47;;;3.10;;
18443;SDS011;9350;53.176;8.194;2023-08-24T10:09:06;4.93;;;2.70;;
18443;SDS011;9350;53.176;8.194;2023-08-24T10:11:37;4.78;;;2.63;;
18443;SDS011;9350;53.176;8.194;2023-08-24T10:14:10;4.95;;;2.45;;
18443;SDS011;9350;53.176;8.194;2023-08-24T10:16:43;6.65;;;3.20;;
18443;SDS011;9350;53.176;8.194;2023-08-24T10:19:12;6.47;;;3.15;;
18443;SDS011;9350;53.176;8.194;2023-08-24T10:21:39;4.85;;;2.50;;
18443;SDS011;9350;53.176;8.194;2023-08-24T10:24:08;6.70;;;3.42;;
18443;SDS011;9350;53.176;8.194;2023-08-24T10:26:36;5.05;;;2.67;;
18443;SDS011;9350;53.176;8.194;2023-08-24T10:29:05;3.25;;;2.42;;
18443;SDS011;9350;53.176;8.194;2023-08-24T10:31:32;4.72;;;3.42;;
18443;SDS011;9350;53.176;8.194;2023-08-24T10:34:02;9.00;;;3.60;;
18443;SDS011;9350;53.176;8.194;2023-08-24T10:36:31;7.15;;;3.22;;
18443;SDS011;9350;53.176;8.194;2023-08-24T10:38:59;6.15;;;3.40;;
18443;SDS011;9350;53.176;8.194;2023-08-24T10:41:30;4.28;;;2.78;;
18443;SDS011;9350;53.176;8.194;2023-08-24T10:44:13;5.32;;;2.63;;
18443;SDS011;9350;53.176;8.194;2023-08-24T10:49:44;7.03;;;3.00;;
18443;SDS011;9350;53.176;8.194;2023-08-24T10:52:23;8.95;;;3.85;;
18443;SDS011;9350;53.176;8.194;2023-08-24T10:54:52;7.32;;;3.40;;
18443;SDS011;9350;53.176;8.194;2023-08-24T10:57:21;5.75;;;3.80;;
18443;SDS011;9350;53.176;8.194;2023-08-24T10:59:58;10.38;;;3.88;;
18443;SDS011;9350;53.176;8.194;2023-08-24T11:02:25;3.85;;;2.90;;
18443;SDS011;9350;53.176;8.194;2023-08-24T11:05:06;5.05;;;3.15;;
18443;SDS011;9350;53.176;8.194;2023-08-24T11:07:47;7.38;;;3.30;;
18443;SDS011;9350;53.176;8.194;2023-08-24T11:10:15;4.53;;;3.15;;
18443;SDS011;9350;53.176;8.194;2023-08-24T11:15:37;6.63;;;2.85;;
18443;SDS011;9350;53.176;8.194;2023-08-24T11:18:11;5.03;;;2.78;;
18443;SDS011;9350;53.176;8.194;2023-08-24T11:20:50;5.50;;;2.90;;
18443;SDS011;9350;53.176;8.194;2023-08-24T11:23:19;5.60;;;3.60;;
18443;SDS011;9350;53.176;8.194;2023-08-24T11:25:46;7.38;;;3.42;;
18443;SDS011;9350;53.176;8.194;2023-08-24T11:28:16;7.35;;;3.42;;
18443;SDS011;9350;53.176;8.194;2023-08-24T11:30:44;5.97;;;3.20;;
18443;SDS011;9350;53.176;8.194;2023-08-24T11:33:11;5.70;;;3.75;;
18443;SDS011;9350;53.176;8.194;2023-08-24T11:35:39;4.55;;;3.17;;
18443;SDS011;9350;53.176;8.194;2023-08-24T11:38:07;6.82;;;3.50;;
18443;SDS011;9350;53.176;8.194;2023-08-24T11:40:34;7.57;;;3.53;;
18443;SDS011;9350;53.176;8.194;2023-08-24T11:43:01;8.20;;;3.05;;
18443;SDS011;9350;53.176;8.194;2023-08-24T11:45:32;5.07;;;3.78;;
18443;SDS011;9350;53.176;8.194;2023-08-24T11:48:01;6.72;;;3.20;;
18443;SDS011;9350;53.176;8.194;2023-08-24T11:50:29;8.07;;;2.88;;
18443;SDS011;9350;53.176;8.194;2023-08-24T11:52:56;6.13;;;3.55;;
18443;SDS011;9350;53.176;8.194;2023-08-24T11:55:27;6.65;;;3.83;;
18443;SDS011;9350;53.176;8.194;2023-08-24T11:57:54;4.63;;;3.10;;
18443;SDS011;9350;53.176;8.194;2023-08-24T12:00:21;7.13;;;3.30;;
18443;SDS011;9350;53.176;8.194;2023-08-24T12:02:48;13.57;;;3.30;;
18443;SDS011;9350;53.176;8.194;2023-08-24T12:05:22;8.23;;;4.20;;
18443;SDS011;9350;53.176;8.194;2023-08-24T12:07:51;6.18;;;3.92;;
18443;SDS011;9350;53.176;8.194;2023-08-24T12:10:18;6.43;;;3.40;;
18443;SDS011;9350;53.176;8.194;2023-08-24T12:12:47;5.78;;;3.10;;
18443;SDS011;9350;53.176;8.194;2023-08-24T12:15:15;5.38;;;2.78;;
18443;SDS011;9350;53.176;8.194;2023-08-24T12:17:42;4.47;;;2.80;;
18443;SDS011;9350;53.176;8.194;2023-08-24T12:20:16;7.88;;;3.17;;
18443;SDS011;9350;53.176;8.194;2023-08-24T12:22:49;6.63;;;2.95;;
18443;SDS011;9350;53.176;8.194;2023-08-24T12:25:21;5.10;;;3.25;;
18443;SDS011;9350;53.176;8.194;2023-08-24T12:27:51;7.28;;;3.20;;
18443;SDS011;9350;53.176;8.194;2023-08-24T12:30:18;8.63;;;3.08;;
18443;SDS011;9350;53.176;8.194;2023-08-24T12:32:45;6.88;;;3.30;;
18443;SDS011;9350;53.176;8.194;2023-08-24T12:35:15;5.18;;;3.03;;
18443;SDS011;9350;53.176;8.194;2023-08-24T12:37:42;12.70;;;3.40;;
18443;SDS011;9350;53.176;8.194;2023-08-24T12:40:09;6.63;;;3.22;;
18443;SDS011;9350;53.176;8.194;2023-08-24T12:42:36;6.03;;;3.55;;
18443;SDS011;9350;53.176;8.194;2023-08-24T12:45:04;5.18;;;3.25;;
18443;SDS011;9350;53.176;8.194;2023-08-24T12:47:32;8.52;;;3.25;;
18443;SDS011;9350;53.176;8.194;2023-08-24T12:50:03;5.43;;;3.35;;
18443;SDS011;9350;53.176;8.194;2023-08-24T12:52:31;6.78;;;3.20;;
18443;SDS011;9350;53.176;8.194;2023-08-24T12:54:58;11.88;;;3.63;;
18443;SDS011;9350;53.176;8.194;2023-08-24T12:57:24;6.63;;;3.20;;
18443;SDS011;9350;53.176;8.194;2023-08-24T12:59:51;6.20;;;3.05;;
18443;SDS011;9350;53.176;8.194;2023-08-24T13:02:20;10.43;;;3.30;;
18443;SDS011;9350;53.176;8.194;2023-08-24T13:04:47;3.30;;;2.90;;
18443;SDS011;9350;53.176;8.194;2023-08-24T13:07:14;3.33;;;3.03;;
18443;SDS011;9350;53.176;8.194;2023-08-24T13:09:41;6.93;;;3.40;;
18443;SDS011;9350;53.176;8.194;2023-08-24T13:12:07;3.63;;;2.90;;
18443;SDS011;9350;53.176;8.194;2023-08-24T13:14:34;6.45;;;3.08;;
18443;SDS011;9350;53.176;8.194;2023-08-24T13:17:01;11.43;;;3.20;;
18443;SDS011;9350;53.176;8.194;2023-08-24T13:19:29;4.80;;;2.80;;
18443;SDS011;9350;53.176;8.194;2023-08-24T13:21:55;5.07;;;3.00;;
18443;SDS011;9350;53.176;8.194;2023-08-24T13:24:22;8.85;;;3.42;;
18443;SDS011;9350;53.176;8.194;2023-08-24T13:26:49;9.95;;;3.63;;
18443;SDS011;9350;53.176;8.194;2023-08-24T13:29:16;5.18;;;3.55;;
18443;SDS011;9350;53.176;8.194;2023-08-24T13:31:42;5.13;;;3.30;;
18443;SDS011;9350;53.176;8.194;2023-08-24T13:34:09;3.63;;;2.78;;
18443;SDS011;9350;53.176;8.194;2023-08-24T13:36:37;6.25;;;2.80;;
18443;SDS011;9350;53.176;8.194;2023-08-24T13:39:04;3.63;;;3.13;;
18443;SDS011;9350;53.176;8.194;2023-08-24T13:41:30;3.83;;;2.65;;
18443;SDS011;9350;53.176;8.194;2023-08-24T13:43:57;4.00;;;2.97;;
18443;SDS011;9350;53.176;8.194;2023-08-24T13:46:24;3.95;;;3.20;;
18443;SDS011;9350;53.176;8.194;2023-08-24T13:48:50;5.28;;;3.00;;
18443;SDS011;9350;53.176;8.194;2023-08-24T13:51:17;6.45;;;3.20;;
18443;SDS011;9350;53.176;8.194;2023-08-24T13:53:45;5.28;;;3.15;;
18443;SDS011;9350;53.176;8.194;2023-08-24T13:56:13;5.82;;;2.78;;
18443;SDS011;9350;53.176;8.194;2023-08-24T13:58:40;3.53;;;2.85;;
18443;SDS011;9350;53.176;8.194;2023-08-24T14:01:07;7.32;;;2.70;;
18443;SDS011;9350;53.176;8.194;2023-08-24T14:03:35;5.95;;;3.25;;
18443;SDS011;9350;53.176;8.194;2023-08-24T14:06:02;3.33;;;2.67;;
18443;SDS011;9350;53.176;8.194;2023-08-24T14:08:29;5.05;;;2.58;;
18443;SDS011;9350;53.176;8.194;2023-08-24T14:10:57;5.32;;;2.97;;
18443;SDS011;9350;53.176;8.194;2023-08-24T14:13:24;8.85;;;2.90;;
18443;SDS011;9350;53.176;8.194;2023-08-24T14:15:51;7.40;;;3.25;;
18443;SDS011;9350;53.176;8.194;2023-08-24T14:18:18;4.40;;;2.83;;
18443;SDS011;9350;53.176;8.194;2023-08-24T14:20:45;6.30;;;2.85;;
18443;SDS011;9350;53.176;8.194;2023-08-24T14:23:11;4.38;;;2.67;;
18443;SDS011;9350;53.176;8.194;2023-08-24T14:25:38;7.57;;;2.92;;
18443;SDS011;9350;53.176;8.194;2023-08-24T14:28:06;2.97;;;2.42;;
18443;SDS011;9350;53.176;8.194;2023-08-24T14:30:33;3.08;;;2.65;;
18443;SDS011;9350;53.176;8.194;2023-08-24T14:33:00;4.45;;;2.90;;
18443;SDS011;9350;53.176;8.194;2023-08-24T14:35:26;6.22;;;2.88;;
18443;SDS011;9350;53.176;8.194;2023-08-24T14:37:53;5.07;;;3.33;;
18443;SDS011;9350;53.176;8.194;2023-08-24T14:40:20;4.47;;;3.13;;
18443;SDS011;9350;53.176;8.194;2023-08-24T14:42:46;3.92;;;3.10;;
18443;SDS011;9350;53.176;8.194;2023-08-24T14:45:15;4.20;;;2.97;;
18443;SDS011;9350;53.176;8.194;2023-08-24T14:47:44;5.18;;;3.20;;
18443;SDS011;9350;53.176;8.194;2023-08-24T14:50:11;6.65;;;3.03;;
18443;SDS011;9350;53.176;8.194;2023-08-24T14:52:37;7.45;;;3.20;;
18443;SDS011;9350;53.176;8.194;2023-08-24T14:55:05;5.53;;;3.15;;
18443;SDS011;9350;53.176;8.194;2023-08-24T14:57:33;10.15;;;3.00;;
18443;SDS011;9350;53.176;8.194;2023-08-24T15:00:00;5.00;;;3.20;;
18443;SDS011;9350;53.176;8.194;2023-08-24T15:02:31;4.22;;;3.15;;
18443;SDS011;9350;53.176;8.194;2023-08-24T15:04:58;8.73;;;3.50;;
18443;SDS011;9350;53.176;8.194;2023-08-24T15:07:25;7.03;;;4.05;;
18443;SDS011;9350;53.176;8.194;2023-08-24T15:09:52;3.83;;;3.30;;